createdAt,value
2022-08-17T05:06:47.697Z,72.24
2022-08-17T05:07:47.692Z,72.13
2022-08-17T05:08:47.671Z,72.13
2022-08-17T05:09:47.658Z,71.93
2022-08-17T05:10:47.641Z,71.83
2022-08-17T05:11:47.638Z,71.83
2022-08-17T05:12:47.631Z,71.83
2022-08-17T05:13:47.620Z,71.83
2022-08-17T05:14:47.600Z,71.73
2022-08-17T05:15:48.015Z,71.53
2022-08-17T05:16:47.582Z,71.63
2022-08-17T05:17:47.582Z,71.63
2022-08-17T05:18:47.552Z,71.63
2022-08-17T05:19:51.759Z,71.53
2022-08-17T05:20:47.542Z,71.30
2022-08-17T05:21:47.522Z,71.39
2022-08-17T05:22:47.524Z,71.30
2022-08-17T05:23:50.358Z,71.30
2022-08-17T05:24:53.738Z,71.30
2022-08-17T05:25:48.484Z,71.30
2022-08-17T05:26:47.515Z,71.30
2022-08-17T05:27:47.476Z,71.30
2022-08-17T05:28:47.454Z,71.20
2022-08-17T05:29:47.448Z,71.09
2022-08-17T05:30:49.277Z,71.00
2022-08-17T05:31:47.425Z,71.09
2022-08-17T05:32:47.409Z,71.20
2022-08-17T05:33:47.436Z,71.00
2022-08-17T05:34:47.387Z,71.20
2022-08-17T05:35:47.369Z,71.20
2022-08-17T05:36:47.358Z,70.89
2022-08-17T05:37:47.351Z,70.89
2022-08-17T05:38:47.359Z,71.00
2022-08-17T05:39:47.370Z,71.30
2022-08-17T05:40:47.335Z,71.06
2022-08-17T05:41:47.315Z,70.86
2022-08-17T05:42:47.293Z,71.16
2022-08-17T05:43:47.293Z,70.96
2022-08-17T05:44:47.271Z,70.96
2022-08-17T05:45:55.305Z,70.86
2022-08-17T05:46:48.251Z,70.66
2022-08-17T05:47:47.243Z,70.66
2022-08-17T05:48:47.234Z,70.46
2022-08-17T05:49:49.030Z,70.46
2022-08-17T05:50:47.204Z,70.26
2022-08-17T05:51:47.193Z,70.03
2022-08-17T05:52:47.225Z,70.12
2022-08-17T05:53:47.222Z,70.23
2022-08-17T05:54:47.153Z,70.12
2022-08-17T05:55:47.164Z,70.12
2022-08-17T05:56:47.140Z,70.03
2022-08-17T05:57:53.865Z,69.93
2022-08-17T05:58:48.175Z,70.03
2022-08-17T05:59:47.128Z,69.93
2022-08-17T06:00:47.116Z,69.42
2022-08-17T06:01:47.112Z,69.39
2022-08-17T06:02:48.040Z,69.19
2022-08-17T06:03:47.080Z,68.99
2022-08-17T06:04:47.048Z,68.49
2022-08-17T06:05:47.081Z,68.39
2022-08-17T06:06:47.030Z,68.29
2022-08-17T06:07:47.019Z,68.39
2022-08-17T06:08:47.082Z,68.49
2022-08-17T06:09:46.999Z,68.39
2022-08-17T06:10:46.999Z,68.29
2022-08-17T06:11:47.069Z,68.09
2022-08-17T06:12:47.965Z,67.76
2022-08-17T06:13:46.980Z,67.76
2022-08-17T06:14:47.011Z,68.16
2022-08-17T06:15:46.933Z,68.46
2022-08-17T06:16:47.053Z,68.55
2022-08-17T06:17:46.935Z,68.96
2022-08-17T06:18:46.903Z,70.06
2022-08-17T06:19:46.895Z,70.56
2022-08-17T06:20:46.882Z,70.32
2022-08-17T06:21:46.872Z,70.32
2022-08-17T06:22:46.893Z,70.53
2022-08-17T06:23:46.968Z,70.53
2022-08-17T06:24:46.836Z,70.53
2022-08-17T06:25:46.829Z,70.03
2022-08-17T06:26:46.816Z,69.62
2022-08-17T06:27:46.809Z,69.32
2022-08-17T06:28:46.798Z,69.82
2022-08-17T06:29:46.798Z,69.82
2022-08-17T07:01:06.897Z,68.46
2022-08-17T07:02:06.756Z,68.06
2022-08-17T07:03:07.090Z,69.13
2022-08-17T07:04:11.872Z,68.03
2022-08-17T07:05:07.704Z,70.12
2022-08-17T07:06:06.846Z,67.63
2022-08-17T07:07:06.683Z,67.50
2022-08-17T07:08:06.753Z,67.40
2022-08-17T07:09:06.674Z,70.19
2022-08-17T07:10:06.686Z,68.26
2022-08-17T07:11:06.647Z,66.77
2022-08-17T07:12:06.686Z,67.13
2022-08-17T07:13:06.639Z,68.03
2022-08-17T07:14:06.615Z,64.25
2022-08-17T07:15:06.609Z,65.14
2022-08-17T07:16:06.859Z,66.67
2022-08-17T07:17:06.577Z,67.86
2022-08-17T07:18:06.617Z,68.00
2022-08-17T07:19:06.558Z,67.50
2022-08-17T07:20:06.587Z,69.29
2022-08-17T07:21:06.530Z,68.30
2022-08-17T07:22:06.544Z,67.00
2022-08-17T07:23:06.521Z,66.70
2022-08-17T07:24:06.530Z,67.20
2022-08-17T07:25:06.510Z,66.40
2022-08-17T07:26:06.577Z,67.66
2022-08-17T07:27:06.494Z,65.57
2022-08-17T07:28:07.136Z,65.24
2022-08-17T07:29:06.495Z,64.12
2022-08-17T07:30:10.273Z,63.82
2022-08-17T07:31:06.441Z,65.51
2022-08-17T07:32:06.444Z,66.47
2022-08-17T07:33:06.426Z,63.39
2022-08-17T07:34:06.447Z,63.39
2022-08-17T07:35:06.397Z,63.79
2022-08-17T07:36:06.406Z,63.98
2022-08-17T07:37:06.377Z,63.52
2022-08-17T07:38:06.375Z,63.62
2022-08-17T07:39:07.368Z,64.81
2022-08-17T07:40:16.013Z,64.61
2022-08-17T07:41:07.324Z,65.21
2022-08-17T07:42:06.380Z,65.71
2022-08-17T07:43:06.300Z,66.08
2022-08-17T07:44:06.401Z,66.47
2022-08-17T07:45:06.281Z,65.58
2022-08-17T07:46:06.272Z,65.78
2022-08-17T07:47:06.252Z,65.75
2022-08-17T07:48:06.281Z,65.15
2022-08-17T07:49:06.242Z,67.44
2022-08-17T07:50:06.288Z,64.75
2022-08-17T07:51:06.214Z,63.53
2022-08-17T07:52:24.279Z,64.72
2022-08-17T07:53:07.191Z,64.52
2022-08-17T07:54:14.471Z,64.12
2022-08-17T07:55:07.168Z,67.11
2022-08-17T07:56:06.185Z,65.12
2022-08-17T07:57:06.156Z,62.73
2022-08-17T07:58:06.135Z,64.22
2022-08-17T07:59:06.137Z,64.42
2022-08-17T08:00:06.166Z,64.12
2022-08-17T08:01:07.110Z,63.95
2022-08-17T08:02:06.305Z,63.26
2022-08-17T08:03:06.087Z,63.06
2022-08-17T08:04:06.191Z,63.29
2022-08-17T08:05:08.773Z,63.19
2022-08-17T08:06:06.119Z,64.48
2022-08-17T08:07:06.040Z,66.08
2022-08-17T08:08:06.106Z,65.38
2022-08-17T08:09:06.031Z,64.09
2022-08-17T08:10:06.012Z,65.58
2022-08-17T08:11:06.013Z,64.51
2022-08-17T08:12:06.031Z,64.51
2022-08-17T08:13:06.972Z,64.72
2022-08-17T08:14:06.017Z,65.54
2022-08-17T08:15:05.956Z,65.64
2022-08-17T08:16:05.969Z,65.74
2022-08-17T08:17:05.944Z,64.84
2022-08-17T08:18:05.943Z,64.94
2022-08-17T08:19:05.924Z,65.54
2022-08-17T08:20:42.455Z,64.48
2022-08-17T08:21:06.885Z,64.07
2022-08-17T08:22:05.937Z,64.58
2022-08-17T08:23:05.876Z,63.98
2022-08-17T08:24:05.877Z,64.37
2022-08-17T08:25:05.850Z,65.37
2022-08-17T08:26:05.950Z,64.37
2022-08-17T08:27:05.829Z,64.48
2022-08-17T08:28:05.920Z,64.67
2022-08-17T08:29:05.932Z,64.97
2022-08-17T08:30:05.803Z,65.57
2022-08-17T08:31:05.790Z,66.07
2022-08-17T08:32:05.782Z,65.11
2022-08-17T08:33:05.761Z,64.81
2022-08-17T08:34:05.802Z,64.90
2022-08-17T08:35:05.742Z,65.01
2022-08-17T08:36:05.754Z,65.11
2022-08-17T08:37:17.151Z,65.01
2022-08-17T08:38:06.760Z,65.20
2022-08-17T08:39:05.711Z,65.61
2022-08-17T08:40:05.763Z,66.70
2022-08-17T08:41:05.684Z,65.61
2022-08-17T08:42:05.676Z,65.91
2022-08-17T08:43:05.664Z,67.00
2022-08-17T08:44:05.695Z,67.00
2022-08-17T08:45:05.755Z,66.10
2022-08-17T08:46:05.646Z,66.20
2022-08-17T08:47:05.615Z,65.70
2022-08-17T08:48:05.905Z,65.50
2022-08-17T08:49:12.122Z,65.50
2022-08-17T08:50:06.800Z,65.31
2022-08-17T08:51:05.568Z,65.31
2022-08-17T08:52:05.599Z,65.61
2022-08-17T08:53:06.046Z,65.50
2022-08-17T08:54:05.576Z,66.00
2022-08-17T08:55:05.532Z,67.10
2022-08-17T08:56:05.541Z,66.40
2022-08-17T08:57:24.483Z,66.20
2022-08-17T08:58:06.555Z,67.00
2022-08-17T08:59:05.501Z,66.70
2022-08-17T09:00:05.506Z,67.50
2022-08-17T09:01:05.543Z,66.40
2022-08-17T09:02:05.462Z,65.91
2022-08-17T09:03:05.442Z,66.20
2022-08-17T09:04:23.371Z,66.20
2022-08-17T09:05:14.984Z,66.60
2022-08-17T09:06:06.444Z,66.10
2022-08-17T09:07:06.416Z,67.20
2022-08-17T09:08:05.418Z,66.40
2022-08-17T09:09:05.397Z,66.00
2022-08-17T09:10:05.377Z,65.91
2022-08-17T09:11:05.366Z,66.60
2022-08-17T09:12:05.359Z,65.80
2022-08-17T09:13:09.922Z,65.50
2022-08-17T09:14:06.430Z,65.91
2022-08-17T09:15:10.857Z,65.41
2022-08-17T09:16:06.379Z,65.50
2022-08-17T09:17:05.298Z,65.70
2022-08-17T09:19:03.059Z,65.91
2022-08-17T09:19:06.503Z,65.80
2022-08-17T09:20:05.260Z,65.11
2022-08-17T09:21:05.262Z,64.81
2022-08-17T09:22:05.241Z,65.91
2022-08-17T09:23:05.232Z,65.11
2022-08-17T09:24:05.265Z,65.50
2022-08-17T09:25:05.212Z,65.50
2022-08-17T09:26:05.242Z,65.31
2022-08-17T09:27:05.204Z,65.91
2022-08-17T09:28:05.197Z,65.61
2022-08-17T09:29:05.185Z,65.91
2022-08-17T09:30:05.156Z,66.00
2022-08-17T09:31:05.143Z,65.70
2022-08-17T09:32:05.174Z,66.20
2022-08-17T09:33:05.137Z,65.91
2022-08-17T09:34:05.155Z,66.70
2022-08-17T09:35:05.114Z,68.53
2022-08-17T09:36:05.105Z,67.23
2022-08-17T09:37:05.188Z,67.33
2022-08-17T09:38:05.179Z,67.73
2022-08-17T09:39:05.066Z,67.83
2022-08-17T09:40:05.121Z,68.33
2022-08-17T09:41:05.047Z,69.02
2022-08-17T09:42:05.042Z,69.23
2022-08-17T09:43:05.024Z,69.23
2022-08-17T09:44:05.010Z,69.96
2022-08-17T09:45:05.019Z,70.06
2022-08-17T09:46:05.018Z,71.36
2022-08-17T09:47:04.990Z,70.83
2022-08-17T09:48:05.021Z,70.53
2022-08-17T09:49:04.972Z,71.62
2022-08-17T09:50:04.971Z,70.92
2022-08-17T09:51:06.493Z,70.62
2022-08-17T09:52:04.943Z,70.42
2022-08-17T09:53:04.923Z,70.69
2022-08-17T09:54:35.194Z,69.29
2022-08-17T09:55:05.904Z,67.86
2022-08-17T09:56:04.924Z,67.77
2022-08-17T09:57:27.887Z,67.54
2022-08-17T09:58:05.895Z,67.43
2022-08-17T09:59:04.855Z,66.80
2022-08-17T10:00:04.867Z,66.91
2022-08-17T10:01:04.881Z,66.27
2022-08-17T10:02:04.823Z,65.08
2022-08-17T10:03:04.817Z,66.17
2022-08-17T10:04:04.816Z,65.28
2022-08-17T10:05:04.808Z,64.78
2022-08-17T10:06:06.525Z,64.78
2022-08-17T10:07:04.773Z,64.88
2022-08-17T10:08:04.762Z,65.28
2022-08-17T10:09:04.749Z,66.01
2022-08-17T10:10:04.753Z,65.51
2022-08-17T10:11:04.728Z,65.51
2022-08-17T10:12:04.731Z,64.81
2022-08-17T10:13:04.701Z,65.68
2022-08-17T10:14:12.509Z,64.69
2022-08-17T10:15:08.109Z,64.98
2022-08-17T10:16:04.718Z,64.69
2022-08-17T10:17:04.655Z,64.09
2022-08-17T10:18:04.676Z,64.18
2022-08-17T10:19:04.643Z,65.38
2022-08-17T10:20:04.664Z,64.25
2022-08-17T10:21:04.656Z,65.35
2022-08-17T10:22:15.008Z,65.31
2022-08-17T10:23:05.614Z,64.42
2022-08-17T10:24:04.621Z,63.89
2022-08-17T10:25:23.403Z,64.39
2022-08-17T10:26:05.588Z,65.48
2022-08-17T10:27:04.557Z,64.56
2022-08-17T10:28:04.565Z,63.43
2022-08-17T10:29:04.544Z,62.74
2022-08-17T10:30:04.689Z,62.54
2022-08-17T10:31:32.970Z,62.15
2022-08-17T10:32:05.500Z,61.62
2022-08-17T10:33:04.490Z,62.38
2022-08-17T10:34:04.824Z,61.50
2022-08-17T10:35:04.480Z,59.66
2022-08-17T10:36:08.792Z,58.32
2022-08-17T10:37:05.442Z,56.34
2022-08-17T10:38:04.441Z,58.34
2022-08-17T10:39:04.449Z,57.23
2022-08-17T10:40:04.494Z,57.92
2022-08-17T10:41:04.403Z,57.30
2022-08-17T10:42:04.442Z,56.58
2022-08-17T10:43:04.388Z,55.47
2022-08-17T10:44:39.756Z,55.49
2022-08-17T10:45:05.389Z,55.40
2022-08-17T10:46:09.532Z,55.66
2022-08-17T10:47:05.349Z,54.90
2022-08-17T10:48:06.523Z,54.53
2022-08-17T10:49:04.348Z,55.75
2022-08-17T10:50:04.417Z,56.37
2022-08-17T10:51:04.318Z,57.54
2022-08-17T10:52:04.354Z,59.05
2022-08-17T10:53:04.310Z,60.89
2022-08-17T10:54:04.344Z,61.36
2022-08-17T10:55:04.282Z,60.86
2022-08-17T10:56:04.282Z,60.27
2022-08-17T10:57:04.265Z,60.60
2022-08-17T10:58:04.306Z,61.69
2022-08-17T10:59:04.247Z,60.80
2022-08-17T11:00:04.304Z,60.86
2022-08-17T11:01:04.276Z,60.86
2022-08-17T11:02:04.618Z,59.65
2022-08-17T11:03:04.196Z,59.45
2022-08-17T11:04:04.240Z,59.88
2022-08-17T11:05:04.210Z,60.77
2022-08-17T11:06:04.198Z,59.97
2022-08-17T11:07:04.148Z,60.20
2022-08-17T11:08:04.149Z,61.39
2022-08-17T11:09:04.136Z,60.50
2022-08-17T11:10:04.146Z,60.63
2022-08-17T11:11:04.140Z,62.02
2022-08-17T11:12:04.121Z,60.43
2022-08-17T11:13:04.090Z,61.10
2022-08-17T11:14:04.089Z,60.27
2022-08-17T11:15:04.083Z,59.94
2022-08-17T11:16:08.282Z,59.52
2022-08-17T11:17:04.053Z,59.00
2022-08-17T11:18:04.080Z,59.69
2022-08-17T11:19:04.030Z,59.06
2022-08-17T11:20:04.043Z,58.45
2022-08-17T11:21:04.013Z,58.12
2022-08-17T11:22:04.024Z,56.63
2022-08-17T11:23:03.995Z,56.17
2022-08-17T13:15:46.236Z,54.80
2022-08-17T13:16:46.282Z,55.49
2022-08-17T13:17:46.204Z,55.33
2022-08-17T13:18:46.267Z,56.46
2022-08-17T13:19:46.139Z,58.15
2022-08-17T13:20:46.127Z,57.16
2022-08-17T13:21:46.113Z,57.13
2022-08-17T13:22:46.108Z,55.33
2022-08-17T13:23:53.495Z,55.03
2022-08-17T13:24:47.110Z,56.31
2022-08-17T13:25:46.081Z,55.82
2022-08-17T13:26:46.071Z,56.31
2022-08-17T13:27:46.123Z,56.02
2022-08-17T13:28:46.053Z,56.58
2022-08-17T13:29:51.608Z,55.79
2022-08-17T13:30:47.024Z,56.98
2022-08-17T13:31:51.926Z,56.36
2022-08-17T13:32:47.096Z,54.75
2022-08-17T13:33:45.995Z,53.57
2022-08-17T13:35:07.747Z,54.09
2022-08-17T13:35:50.439Z,55.69
2022-08-17T13:36:45.977Z,55.22
2022-08-17T13:37:46.003Z,58.36
2022-08-17T13:38:45.979Z,56.30
2022-08-17T13:39:46.054Z,53.71
2022-08-17T13:40:45.937Z,53.64
2022-08-17T13:41:45.929Z,53.67
2022-08-17T13:42:50.425Z,56.46
2022-08-17T13:43:46.939Z,54.41
2022-08-17T13:44:45.918Z,55.65
2022-08-17T13:45:45.891Z,56.57
2022-08-17T13:46:46.888Z,57.95
2022-08-17T13:47:46.925Z,56.79
2022-08-17T13:48:45.899Z,57.78
2022-08-17T13:49:48.937Z,57.39
2022-08-17T13:50:45.894Z,58.07
2022-08-17T13:51:45.845Z,58.47
2022-08-17T13:52:48.871Z,58.74
2022-08-17T13:53:46.815Z,59.31
2022-08-17T13:54:45.822Z,58.81
2022-08-17T13:55:45.836Z,58.29
2022-08-17T13:56:45.806Z,55.62
2022-08-17T13:57:45.817Z,55.72
2022-08-17T13:58:45.835Z,56.54
2022-08-17T13:59:53.062Z,57.82
2022-08-17T14:00:46.764Z,57.73
2022-08-17T14:01:49.689Z,58.69
2022-08-17T14:02:46.731Z,57.10
2022-08-17T14:03:45.761Z,57.34
2022-08-17T14:04:46.732Z,55.44
2022-08-17T14:05:45.717Z,54.36
2022-08-17T14:06:51.868Z,55.47
2022-08-17T14:07:46.700Z,56.78
2022-08-17T14:08:45.672Z,58.00
2022-08-17T14:09:45.663Z,57.73
2022-08-17T14:10:45.655Z,57.95
2022-08-17T14:11:45.636Z,57.98
2022-08-17T14:12:45.630Z,60.16
2022-08-17T14:13:45.617Z,59.33
2022-08-17T14:14:45.618Z,58.45
2022-08-17T14:15:55.039Z,60.62
2022-08-17T14:16:46.589Z,58.45
2022-08-17T14:17:45.579Z,59.31
2022-08-17T14:18:55.892Z,58.12
2022-08-17T14:19:46.570Z,57.65
2022-08-17T14:20:45.540Z,57.65
2022-08-17T14:21:45.529Z,58.07
2022-08-17T14:22:45.535Z,59.00
2022-08-17T14:23:48.994Z,59.42
2022-08-17T14:24:46.502Z,59.55
2022-08-17T14:25:45.522Z,59.94
2022-08-17T14:26:45.490Z,60.64
2022-08-17T14:27:53.028Z,61.73
2022-08-17T14:28:54.571Z,61.93
2022-08-17T14:29:46.452Z,61.50
2022-08-17T14:30:45.453Z,61.10
2022-08-17T14:31:48.518Z,61.00
2022-08-17T14:32:46.425Z,60.71
2022-08-17T14:33:45.415Z,61.07
2022-08-17T14:34:45.429Z,59.89
2022-08-17T14:35:45.396Z,61.07
2022-08-17T14:36:45.386Z,59.89
2022-08-17T14:37:45.458Z,59.69
2022-08-17T14:38:45.372Z,59.49
2022-08-17T14:39:45.418Z,59.22
2022-08-17T14:40:45.347Z,59.52
2022-08-17T14:41:45.327Z,60.51
2022-08-17T14:42:46.017Z,60.21
2022-08-17T14:43:45.312Z,59.89
2022-08-17T14:44:45.313Z,59.56
2022-08-17T14:45:45.283Z,58.97
2022-08-17T14:46:45.283Z,57.85
2022-08-17T14:47:45.263Z,58.37
2022-08-17T14:48:45.256Z,58.67
2022-08-17T14:49:47.651Z,59.09
2022-08-17T14:50:45.244Z,59.39
2022-08-17T14:51:45.235Z,59.22
2022-08-17T14:52:45.216Z,60.02
2022-08-17T14:53:45.246Z,60.64
2022-08-17T14:54:45.896Z,61.04
2022-08-17T14:55:45.187Z,61.13
2022-08-17T14:56:45.320Z,61.13
2022-08-17T14:57:45.256Z,61.07
2022-08-17T14:58:45.149Z,61.66
2022-08-17T14:59:45.323Z,60.96
2022-08-17T15:00:45.129Z,61.56
2022-08-17T15:01:45.147Z,61.66
2022-08-17T15:02:45.114Z,61.46
2022-08-17T15:03:45.113Z,61.33
2022-08-17T15:04:45.827Z,61.33
2022-08-17T15:05:45.084Z,61.04
2022-08-17T15:06:45.122Z,60.54
2022-08-17T15:07:45.068Z,60.94
2022-08-17T15:08:45.054Z,62.12
2022-08-17T15:09:45.053Z,61.00
2022-08-17T15:10:45.033Z,61.47
2022-08-17T15:11:45.024Z,60.35
2022-08-17T15:12:45.022Z,60.22
2022-08-17T15:13:53.051Z,59.14
2022-08-17T15:14:45.996Z,58.34
2022-08-17T15:15:44.977Z,58.74
2022-08-17T15:16:44.971Z,58.74
2022-08-17T15:17:45.950Z,59.23
2022-08-17T15:18:44.937Z,59.36
2022-08-17T15:19:44.948Z,59.36
2022-08-17T15:20:44.929Z,59.56
2022-08-17T15:21:44.919Z,58.57
2022-08-17T15:22:44.917Z,59.30
2022-08-17T15:23:44.900Z,59.39
2022-08-17T15:24:44.890Z,59.89
2022-08-17T15:25:44.891Z,60.78
2022-08-17T15:26:44.862Z,60.78
2022-08-17T15:27:44.926Z,60.88
2022-08-17T15:28:44.846Z,60.58
2022-08-17T15:30:36.990Z,59.49
2022-08-17T15:31:36.960Z,58.90
2022-08-17T15:32:36.966Z,58.92
2022-08-17T15:33:36.944Z,59.32
2022-08-17T15:34:36.953Z,59.81
2022-08-17T15:35:36.924Z,60.41
2022-08-17T15:36:37.038Z,58.92
2022-08-17T15:37:36.973Z,60.81
2022-08-17T15:38:36.915Z,58.83
2022-08-17T15:39:36.950Z,59.25
2022-08-17T15:40:36.981Z,59.84
2022-08-17T15:41:36.866Z,60.34
2022-08-17T15:42:36.848Z,60.47
2022-08-17T15:43:36.849Z,60.77
2022-08-17T15:44:36.848Z,60.17
2022-08-17T15:45:36.823Z,60.47
2022-08-17T15:46:36.820Z,60.17
2022-08-17T15:47:36.799Z,60.86
2022-08-17T15:48:36.787Z,60.57
2022-08-17T15:49:36.790Z,61.56
2022-08-17T15:50:36.771Z,61.26
2022-08-17T15:51:36.752Z,61.46
2022-08-17T15:52:36.750Z,61.46
2022-08-17T15:53:36.732Z,61.16
2022-08-17T15:54:36.733Z,60.67
2022-08-17T15:55:36.717Z,59.67
2022-08-17T15:56:36.701Z,59.18
2022-08-17T15:57:36.691Z,59.38
2022-08-17T15:58:36.683Z,59.48
2022-08-17T15:59:36.683Z,60.50
2022-08-17T16:00:49.061Z,59.91
2022-08-17T16:03:01.492Z,60.00
2022-08-17T16:03:47.026Z,59.80
2022-08-17T16:03:59.392Z,60.30
2022-08-17T16:04:43.937Z,59.91
2022-08-17T16:05:37.683Z,60.20
2022-08-17T16:06:36.596Z,60.50
2022-08-17T16:07:36.598Z,59.80
2022-08-17T16:08:36.576Z,60.50
2022-08-17T16:09:36.576Z,60.80
2022-08-17T16:10:36.549Z,60.80
2022-08-17T18:02:07.793Z,60.58
2022-08-17T18:03:07.635Z,60.69
2022-08-17T18:04:08.308Z,60.78
2022-08-17T18:05:08.607Z,60.78
2022-08-17T18:06:07.647Z,60.98
2022-08-17T18:07:09.947Z,61.28
2022-08-17T18:08:10.824Z,61.08
2022-08-17T18:09:07.558Z,61.18
2022-08-17T18:10:19.551Z,61.28
2022-08-17T18:11:08.561Z,61.68
2022-08-17T18:12:07.568Z,61.31
2022-08-17T18:13:07.524Z,61.41
2022-08-17T18:14:07.666Z,61.41
2022-08-17T18:15:07.502Z,61.80
2022-08-17T18:16:07.491Z,61.71
2022-08-17T18:17:07.491Z,62.01
2022-08-17T18:18:07.512Z,62.01
2022-08-17T18:19:07.451Z,62.01
2022-08-17T18:20:07.493Z,62.21
2022-08-17T18:21:07.423Z,62.53
2022-08-17T18:22:07.422Z,62.63
2022-08-17T18:23:08.405Z,62.83
2022-08-17T18:24:07.415Z,62.83
2022-08-17T18:25:07.394Z,62.93
2022-08-17T18:26:08.005Z,63.13
2022-08-17T18:27:08.521Z,63.23
2022-08-17T18:28:07.596Z,63.33
2022-08-17T18:29:07.337Z,63.43
2022-08-17T18:30:09.394Z,63.43
2022-08-17T18:31:07.312Z,63.43
2022-08-17T18:32:08.377Z,63.56
2022-08-17T18:33:07.377Z,63.66
2022-08-17T18:34:18.714Z,63.76
2022-08-17T18:35:08.283Z,63.76
2022-08-17T18:36:07.368Z,63.85
2022-08-17T18:37:07.248Z,63.85
2022-08-17T18:38:07.699Z,63.95
2022-08-17T18:39:07.220Z,64.06
2022-08-17T18:40:07.365Z,64.15
2022-08-17T18:41:07.200Z,64.36
2022-08-17T18:42:07.221Z,64.48
2022-08-17T18:43:08.180Z,64.58
2022-08-17T18:44:07.241Z,64.58
2022-08-17T18:45:07.180Z,64.69
2022-08-17T18:46:07.384Z,64.69
2022-08-17T18:47:07.134Z,64.78
2022-08-17T18:48:07.633Z,64.98
2022-08-17T18:49:07.113Z,65.11
2022-08-17T18:50:07.523Z,65.21
2022-08-17T18:51:07.094Z,65.21
2022-08-17T18:52:07.107Z,65.31
2022-08-17T18:53:07.354Z,65.41
2022-08-17T18:54:07.096Z,65.51
2022-08-17T18:55:07.062Z,65.61
2022-08-17T18:56:07.075Z,65.71
2022-08-17T18:57:07.026Z,65.84
2022-08-17T18:58:07.418Z,65.94
2022-08-17T18:59:07.010Z,66.04
2022-08-17T19:00:07.115Z,66.24
2022-08-17T19:01:06.988Z,66.34
2022-08-17T19:02:12.025Z,66.34
2022-08-17T19:03:08.033Z,66.47
2022-08-17T19:04:07.018Z,66.67
2022-08-17T19:05:06.960Z,66.77
2022-08-17T19:06:07.109Z,66.97
2022-08-17T19:07:06.944Z,67.17
2022-08-17T19:08:07.017Z,67.17
2022-08-17T19:09:06.901Z,67.36
2022-08-17T19:10:06.922Z,67.70
2022-08-17T19:11:06.892Z,67.80
2022-08-17T19:12:06.905Z,67.90
2022-08-17T19:13:12.614Z,68.10
2022-08-17T19:14:07.874Z,68.10
2022-08-17T19:15:06.854Z,68.19
2022-08-17T19:16:12.103Z,68.30
2022-08-17T19:17:07.821Z,68.49
2022-08-17T19:18:09.902Z,68.53
2022-08-17T19:19:07.793Z,68.53
2022-08-17T19:20:06.845Z,68.63
2022-08-17T19:21:06.775Z,68.63
2022-08-17T19:22:06.987Z,68.63
2022-08-17T19:23:06.785Z,68.73
2022-08-17T19:24:06.917Z,68.73
2022-08-17T19:25:09.257Z,68.83
2022-08-17T19:26:06.838Z,68.83
2022-08-17T19:27:07.707Z,68.83
2022-08-17T19:28:15.341Z,68.83
2022-08-17T19:29:07.708Z,69.02
2022-08-17T19:30:08.363Z,69.13
2022-08-17T19:31:06.670Z,69.43
2022-08-17T19:32:06.729Z,69.36
2022-08-17T19:33:06.648Z,69.36
2022-08-17T19:34:06.697Z,69.46
2022-08-17T19:35:06.650Z,69.56
2022-08-17T19:36:06.722Z,69.76
2022-08-17T19:37:06.601Z,69.86
2022-08-17T19:38:12.882Z,69.86
2022-08-17T19:39:07.573Z,70.16
2022-08-17T19:40:06.711Z,70.36
2022-08-17T19:41:06.612Z,70.46
2022-08-17T19:42:06.656Z,70.46
2022-08-17T19:43:06.534Z,70.46
2022-08-17T19:44:06.576Z,70.76
2022-08-17T19:45:06.546Z,70.89
2022-08-17T19:46:06.594Z,71.19
2022-08-17T19:47:06.493Z,71.39
2022-08-17T19:48:06.934Z,71.39
2022-08-17T19:49:06.484Z,71.39
2022-08-17T19:50:06.494Z,71.29
2022-08-17T19:51:06.585Z,71.49
2022-08-17T19:52:06.453Z,71.49
2022-08-17T19:53:06.425Z,71.49
2022-08-17T19:54:07.300Z,71.49
2022-08-17T19:55:06.420Z,71.49
2022-08-17T19:56:06.460Z,71.49
2022-08-17T19:57:06.410Z,71.39
2022-08-17T19:58:06.556Z,71.59
2022-08-17T19:59:06.371Z,71.49
2022-08-17T20:00:06.407Z,71.49
2022-08-17T20:01:06.395Z,71.39
2022-08-17T20:02:06.347Z,71.39
2022-08-17T20:03:06.609Z,71.39
2022-08-17T20:04:06.312Z,71.39
2022-08-17T20:05:06.312Z,71.59
2022-08-17T20:06:13.001Z,71.69
2022-08-17T20:07:07.273Z,71.69
2022-08-17T20:08:06.300Z,71.69
2022-08-17T20:09:06.775Z,71.69
2022-08-17T20:10:06.274Z,71.83
2022-08-17T20:11:06.234Z,71.83
2022-08-17T20:12:06.263Z,71.83
2022-08-17T20:13:06.212Z,71.83
2022-08-17T20:14:06.227Z,71.92
2022-08-17T20:15:06.214Z,72.02
2022-08-17T20:16:06.185Z,71.92
2022-08-17T20:17:06.177Z,71.92
2022-08-17T20:18:06.154Z,72.13
2022-08-17T20:19:06.148Z,72.02
2022-08-17T20:20:06.150Z,72.02
2022-08-17T20:21:06.125Z,72.02
2022-08-17T20:22:06.144Z,72.02
2022-08-17T20:23:06.105Z,72.02
2022-08-17T20:24:06.398Z,72.13
2022-08-17T20:25:06.086Z,72.13
2022-08-17T20:26:06.102Z,72.13
2022-08-17T20:27:06.057Z,72.22
2022-08-17T20:28:06.837Z,72.26
2022-08-17T20:29:06.037Z,72.36
2022-08-17T20:30:06.381Z,72.36
2022-08-17T20:31:06.010Z,72.36
2022-08-17T20:32:06.105Z,72.36
2022-08-17T20:33:05.989Z,72.45
2022-08-17T20:34:06.016Z,72.45
2022-08-17T20:35:05.981Z,72.45
2022-08-17T20:36:05.998Z,72.45
2022-08-17T20:37:05.953Z,72.45
2022-08-17T20:38:05.995Z,72.45
2022-08-17T20:39:05.921Z,72.49
2022-08-17T20:40:06.069Z,72.49
2022-08-17T20:41:07.429Z,72.49
2022-08-17T20:42:05.896Z,72.49
2022-08-17T20:43:05.874Z,72.59
2022-08-17T20:44:05.921Z,72.59
2022-08-17T20:45:05.872Z,72.69
2022-08-17T20:46:05.873Z,72.69
2022-08-17T20:47:05.838Z,72.79
2022-08-17T20:48:33.318Z,72.79
2022-08-17T20:49:06.813Z,72.92
2022-08-17T20:50:05.808Z,73.13
2022-08-17T20:51:05.797Z,73.13
2022-08-17T20:52:05.774Z,73.13
2022-08-17T20:53:05.766Z,73.22
2022-08-17T20:54:05.768Z,73.43
2022-08-17T20:55:05.761Z,73.63
2022-08-17T20:56:05.729Z,73.72
2022-08-17T20:57:06.110Z,73.72
2022-08-17T20:58:06.799Z,73.76
2022-08-17T20:59:05.699Z,73.96
2022-08-17T21:00:05.899Z,73.96
2022-08-17T21:01:05.732Z,73.96
2022-08-17T21:02:05.669Z,73.96
2022-08-17T21:03:05.798Z,74.06
2022-08-17T21:04:06.849Z,74.06
2022-08-17T21:05:07.279Z,74.10
2022-08-17T21:06:14.440Z,74.10
2022-08-17T21:07:06.612Z,74.20
2022-08-17T21:08:05.608Z,74.20
2022-08-17T21:09:05.592Z,74.30
2022-08-17T21:10:05.602Z,74.40
2022-08-17T21:11:05.569Z,74.50
2022-08-17T21:12:05.813Z,74.60
2022-08-17T21:13:05.543Z,74.73
2022-08-17T21:14:05.541Z,74.84
2022-08-17T21:15:05.536Z,74.93
2022-08-17T21:16:05.514Z,75.04
2022-08-17T21:17:05.506Z,75.13
2022-08-17T21:18:05.579Z,75.13
2022-08-17T21:19:06.942Z,75.23
2022-08-17T21:20:11.485Z,75.34
2022-08-17T21:21:06.470Z,75.57
2022-08-17T21:22:05.521Z,75.67
2022-08-17T21:23:05.440Z,76.07
2022-08-17T21:24:05.437Z,76.37
2022-08-17T21:25:05.419Z,76.37
2022-08-17T21:26:05.439Z,76.47
2022-08-17T21:27:05.449Z,76.47
2022-08-17T21:28:05.387Z,76.87
2022-08-17T21:29:30.172Z,76.98
2022-08-17T21:30:06.726Z,77.21
2022-08-17T21:31:05.348Z,77.41
2022-08-17T21:32:06.215Z,77.41
2022-08-17T21:33:05.329Z,77.51
2022-08-17T21:34:05.405Z,77.61
2022-08-17T21:35:05.320Z,77.72
2022-08-17T21:36:05.520Z,77.61
2022-08-17T21:37:05.281Z,77.81
2022-08-17T21:38:05.312Z,77.91
2022-08-17T21:39:05.263Z,78.11
2022-08-17T21:40:05.371Z,78.25
2022-08-17T21:41:05.232Z,78.45
2022-08-17T21:42:05.234Z,78.45
2022-08-17T21:43:05.213Z,78.55
2022-08-17T21:44:05.582Z,78.66
2022-08-17T21:45:05.324Z,78.96
2022-08-17T21:46:05.201Z,79.25
2022-08-17T21:47:05.175Z,79.55
2022-08-17T21:48:05.175Z,79.55
2022-08-17T21:49:09.140Z,79.46
2022-08-17T21:50:06.156Z,79.55
2022-08-17T21:51:05.135Z,79.75
2022-08-17T21:52:05.140Z,79.86
2022-08-17T21:53:05.116Z,79.75
2022-08-17T21:54:05.106Z,79.75
2022-08-17T21:55:05.100Z,79.86
2022-08-17T21:56:05.096Z,79.86
2022-08-17T21:57:05.066Z,79.86
2022-08-17T21:58:14.326Z,79.86
2022-08-17T21:59:06.069Z,79.66
2022-08-17T22:00:05.060Z,79.55
2022-08-17T22:01:05.052Z,79.55
2022-08-17T22:02:05.281Z,79.46
2022-08-17T22:03:05.001Z,79.46
2022-08-17T22:04:04.990Z,79.46
2022-08-17T22:05:04.990Z,79.36
2022-08-17T22:06:04.992Z,79.36
2022-08-17T22:07:04.957Z,79.39
2022-08-17T22:08:05.022Z,79.39
2022-08-17T22:09:04.943Z,79.49
2022-08-17T22:10:05.017Z,79.49
2022-08-17T22:11:04.912Z,79.60
2022-08-17T22:12:04.926Z,79.60